Orbital elements of FENGYUN 1C DEB
| Launched | 9 May 1999 |
| Flight ended | – |
| Launch site | Taiyuan Space Center, PRC |
| Owner | People's Republic of China |
| NORAD ID | 30171 |
| Date fetched |
Epoch osculation |
Inc. [°] |
Ecc. | RA asc node [hr] |
Arg Peri. [°] |
Mean anom [°] |
Mean motion [rev/day] |
Abs. mag |
| Date fetched |
Epoch osculation |
Inc. [°] |
Ecc. | RA asc node [hr] |
Arg Peri. [°] |
Mean anom [°] |
Mean motion [rev/day] |
Abs. mag |
| 2026 May 06 17:57 | 2026 May 05 13:12:40 | 98.3846 | 0.01843 | 22.3911 | 224.4721 | 134.1524 | 13.96962 | – |
| 2026 May 05 17:57 | 2026 May 05 13:12:40 | 98.3846 | 0.01843 | 22.3911 | 224.4721 | 134.1524 | 13.96962 | – |
| 2026 May 04 17:57 | 2026 Apr 30 12:52:54 | 98.3858 | 0.01841 | 22.0860 | 238.6223 | 134.1524 | 13.96962 | – |
| 2026 May 03 17:57 | 2026 Apr 30 12:52:54 | 98.3858 | 0.01841 | 22.0860 | 238.6223 | 134.1524 | 13.96962 | – |
| 2026 May 02 17:57 | 2026 Apr 30 12:52:54 | 98.3858 | 0.01841 | 22.0860 | 238.6223 | 134.1524 | 13.96962 | – |
| 2026 May 01 17:56 | 2026 Apr 30 12:52:54 | 98.3858 | 0.01841 | 22.0860 | 238.6223 | 134.1524 | 13.96962 | – |
| 2026 Apr 30 17:56 | 2026 Apr 30 12:52:54 | 98.3858 | 0.01841 | 22.0860 | 238.6223 | 134.1524 | 13.96962 | – |
| 2026 Apr 29 17:57 | 2026 Apr 24 12:29:13 | 98.3868 | 0.01838 | 21.7198 | 255.5754 | 134.1524 | 13.96962 | – |
| 2026 Apr 28 17:56 | 2026 Apr 24 12:29:13 | 98.3868 | 0.01838 | 21.7198 | 255.5754 | 134.1524 | 13.96962 | – |
| 2026 Apr 27 17:58 | 2026 Apr 24 12:29:13 | 98.3868 | 0.01838 | 21.7198 | 255.5754 | 134.1524 | 13.96962 | – |
| 2026 Apr 26 17:58 | 2026 Apr 24 12:29:13 | 98.3868 | 0.01838 | 21.7198 | 255.5754 | 134.1524 | 13.96962 | – |
| 2026 Apr 25 17:58 | 2026 Apr 24 12:29:13 | 98.3868 | 0.01838 | 21.7198 | 255.5754 | 134.1524 | 13.96962 | – |
| 2026 Apr 24 17:59 | 2026 Apr 24 12:29:13 | 98.3868 | 0.01838 | 21.7198 | 255.5754 | 134.1524 | 13.96962 | – |
| 2026 Apr 23 17:57 | 2026 Apr 18 12:05:33 | 98.3870 | 0.01839 | 21.3535 | 272.5048 | 134.1524 | 13.96962 | – |
| 2026 Apr 22 17:57 | 2026 Apr 18 12:05:33 | 98.3870 | 0.01839 | 21.3535 | 272.5048 | 134.1524 | 13.96962 | – |
| 2026 Apr 21 17:57 | 2026 Apr 18 12:05:33 | 98.3870 | 0.01839 | 21.3535 | 272.5048 | 134.1524 | 13.96962 | – |
| 2026 Apr 20 17:57 | 2026 Apr 18 12:05:33 | 98.3870 | 0.01839 | 21.3535 | 272.5048 | 134.1524 | 13.96962 | – |
| 2026 Apr 19 17:58 | 2026 Apr 18 12:05:33 | 98.3870 | 0.01839 | 21.3535 | 272.5048 | 134.1524 | 13.96962 | – |
| 2026 Apr 18 17:56 | 2026 Apr 12 03:06:12 | 98.3878 | 0.01842 | 20.9654 | 290.4390 | 134.1524 | 13.96962 | – |
| 2026 Apr 16 17:57 | 2026 Apr 12 03:06:12 | 98.3878 | 0.01842 | 20.9654 | 290.4390 | 134.1524 | 13.96962 | – |
| 2026 Apr 14 17:57 | 2026 Apr 12 03:06:12 | 98.3878 | 0.01842 | 20.9654 | 290.4390 | 134.1524 | 13.96962 | – |
| 2026 Apr 13 17:57 | 2026 Apr 12 03:06:12 | 98.3878 | 0.01842 | 20.9654 | 290.4390 | 134.1524 | 13.96962 | – |
| 2026 Apr 12 17:57 | 2026 Apr 08 01:07:19 | 98.3882 | 0.01843 | 20.7168 | 301.9491 | 134.1524 | 13.96962 | – |
| 2026 Apr 11 17:57 | 2026 Apr 08 01:07:19 | 98.3882 | 0.01843 | 20.7168 | 301.9491 | 134.1524 | 13.96962 | – |
| 2026 Apr 10 17:58 | 2026 Apr 08 01:07:19 | 98.3882 | 0.01843 | 20.7168 | 301.9491 | 134.1524 | 13.96962 | – |
| 2026 Apr 09 18:01 | 2026 Apr 08 01:07:19 | 98.3882 | 0.01843 | 20.7168 | 301.9491 | 134.1524 | 13.96962 | – |